createdAt,value
2022-12-03T00:00:17.712Z,97374.31
2022-12-03T00:02:48.384Z,97370.94
2022-12-03T00:05:17.391Z,97377.44
2022-12-03T00:07:46.728Z,97365.72
2022-12-03T00:10:15.822Z,97380.09
2022-12-03T00:12:44.697Z,97394.72
2022-12-03T00:15:13.631Z,97390.69
2022-12-03T00:17:42.527Z,97385.69
2022-12-03T00:20:18.391Z,97394.56
2022-12-03T00:22:47.490Z,97395.41
2022-12-03T00:25:17.006Z,97387.69
2022-12-03T00:27:47.170Z,97375.56
2022-12-03T00:30:16.152Z,97387.53
2022-12-03T00:32:45.044Z,97382.91
2022-12-03T00:35:14.051Z,97391.81
2022-12-03T00:37:42.970Z,97366.97
2022-12-03T00:40:13.080Z,97378.28
2022-12-03T00:42:41.954Z,97387.31
2022-12-03T00:45:11.326Z,97384.91
2022-12-03T00:47:40.186Z,97387.31
2022-12-03T00:50:09.496Z,97389.75
2022-12-03T00:52:38.462Z,97380.19
2022-12-03T00:55:07.905Z,97385.84
2022-12-03T00:57:36.721Z,97391.38
2022-12-03T01:00:07.940Z,97389.59
2022-12-03T01:02:37.402Z,97377.41
2022-12-03T01:05:06.907Z,97385.78
2022-12-03T01:07:36.894Z,97382.41
2022-12-03T01:10:06.291Z,97381.44
2022-12-03T01:12:35.239Z,97382.25
2022-12-03T01:15:04.916Z,97386.13
2022-12-03T01:17:33.731Z,97384.22
2022-12-03T01:20:03.021Z,97389.06
2022-12-03T01:22:32.018Z,97363.72
2022-12-03T01:25:00.853Z,97387.81
2022-12-03T01:27:32.000Z,97396.06
2022-12-03T01:30:00.841Z,97389.94
2022-12-03T01:32:29.813Z,97390.44
2022-12-03T01:34:58.660Z,97388.41
2022-12-03T01:37:28.347Z,97390.53
2022-12-03T01:39:57.690Z,97385.75
2022-12-03T01:42:37.862Z,97367.81
2022-12-03T01:45:08.480Z,97378.50
2022-12-03T01:47:38.999Z,97381.25
2022-12-03T01:50:20.265Z,97385.66
2022-12-03T01:52:49.292Z,97367.22
2022-12-03T01:55:22.000Z,97387.91
2022-12-03T01:57:57.706Z,97390.00
2022-12-03T02:00:29.447Z,97382.94
2022-12-03T02:03:01.726Z,97373.25
2022-12-03T02:05:34.675Z,97385.34
2022-12-03T02:08:23.370Z,97391.31
2022-12-03T02:10:52.772Z,97385.34
2022-12-03T02:13:22.010Z,97385.88
2022-12-03T02:15:51.130Z,97391.38
2022-12-03T02:18:20.318Z,97382.66
2022-12-03T02:21:07.739Z,97383.19
2022-12-03T02:23:52.158Z,97382.56
2022-12-03T02:26:21.344Z,97358.88
2022-12-03T02:28:50.193Z,97364.84
2022-12-03T02:31:19.165Z,97376.84
2022-12-03T02:33:48.064Z,97372.34
2022-12-03T02:36:17.519Z,97372.19
2022-12-03T02:38:50.344Z,97378.81
2022-12-03T02:41:39.613Z,97378.34
2022-12-03T02:44:10.591Z,97367.41
2022-12-03T02:46:39.906Z,97360.94
2022-12-03T02:49:09.132Z,97361.00
2022-12-03T02:51:38.238Z,97379.72
2022-12-03T02:54:07.116Z,97366.06
2022-12-03T02:56:36.119Z,97371.81
2022-12-03T02:59:06.822Z,97364.41
2022-12-03T03:01:36.684Z,97381.34
2022-12-03T03:04:07.162Z,97376.56
2022-12-03T03:06:36.293Z,97377.06
2022-12-03T03:09:05.450Z,97376.44
2022-12-03T03:11:34.623Z,97376.44
2022-12-03T03:14:05.384Z,97361.16
2022-12-03T03:16:35.303Z,97370.81
2022-12-03T03:19:05.763Z,97369.22
2022-12-03T03:21:34.931Z,97366.47
2022-12-03T03:24:03.881Z,97356.97
2022-12-03T03:26:32.978Z,97356.31
2022-12-03T03:29:03.653Z,97361.47
2022-12-03T03:31:32.722Z,97361.81
2022-12-03T03:34:01.689Z,97363.72
2022-12-03T03:36:30.687Z,97366.81
2022-12-03T03:38:59.872Z,97361.31
2022-12-03T03:41:30.531Z,97361.97
2022-12-03T03:43:59.704Z,97353.56
2022-12-03T03:46:29.824Z,97352.78
2022-12-03T03:48:58.794Z,97365.69
2022-12-03T03:51:28.239Z,97370.19
2022-12-03T03:53:57.505Z,97371.56
2022-12-03T03:56:26.629Z,97366.84
2022-12-03T03:58:56.919Z,97375.56
2022-12-03T04:01:27.075Z,97377.31
2022-12-03T04:03:56.552Z,97374.59
2022-12-03T04:06:25.466Z,97372.44
2022-12-03T04:08:54.635Z,97388.47
2022-12-03T04:11:41.833Z,97378.78
2022-12-03T04:14:10.675Z,97378.34
2022-12-03T04:16:40.700Z,97375.63
2022-12-03T04:19:09.702Z,97364.66
2022-12-03T04:21:57.060Z,97381.78
2022-12-03T04:24:25.872Z,97374.50
2022-12-03T04:27:13.322Z,97385.19
2022-12-03T04:29:42.109Z,97374.06
2022-12-03T04:32:29.456Z,97382.78
2022-12-03T04:35:16.783Z,97380.03
2022-12-03T04:37:45.710Z,97380.38
2022-12-03T04:40:34.320Z,97381.81
2022-12-03T04:43:03.255Z,97388.75
2022-12-03T04:45:32.316Z,97395.69
2022-12-03T04:48:01.238Z,97394.72
2022-12-03T04:50:30.095Z,97390.00
2022-12-03T04:52:59.012Z,97381.63
2022-12-03T04:55:27.855Z,97384.38
2022-12-03T04:57:57.171Z,97407.13
2022-12-03T05:00:27.073Z,97400.50
2022-12-03T05:02:56.271Z,97407.47
2022-12-03T05:05:25.249Z,97400.50
2022-12-03T05:07:54.194Z,97396.47
2022-12-03T05:10:23.137Z,97377.75
2022-12-03T05:12:52.059Z,97381.44
2022-12-03T05:15:21.081Z,97399.13
2022-12-03T05:17:50.575Z,97406.25
2022-12-03T05:20:38.010Z,97404.94
2022-12-03T05:23:06.970Z,97408.84
2022-12-03T05:25:35.927Z,97412.56
2022-12-03T05:28:05.488Z,97412.91
2022-12-03T05:30:35.122Z,97420.34
2022-12-03T05:33:04.041Z,97389.22
2022-12-03T05:35:32.893Z,97411.97
2022-12-03T05:38:01.947Z,97417.63
2022-12-03T05:40:30.761Z,97411.34
2022-12-03T05:43:01.739Z,97411.19
2022-12-03T05:45:36.361Z,97420.88
2022-12-03T05:48:07.952Z,97415.56
2022-12-03T05:50:39.504Z,97410.41
2022-12-03T05:53:18.317Z,97409.56
2022-12-03T05:55:47.809Z,97419.75
2022-12-03T05:58:16.717Z,97415.69
2022-12-03T06:00:46.739Z,97427.47
2022-12-03T06:03:15.932Z,97419.28
2022-12-03T06:05:45.048Z,97428.94
2022-12-03T06:08:14.361Z,97418.28
2022-12-03T06:10:43.338Z,97402.63
2022-12-03T06:13:12.737Z,97415.41
2022-12-03T06:15:43.987Z,97430.72
2022-12-03T06:18:13.306Z,97422.47
2022-12-03T06:20:42.336Z,97423.44
2022-12-03T06:23:11.296Z,97434.59
2022-12-03T06:25:40.187Z,97425.84
2022-12-03T06:28:09.465Z,97432.16
2022-12-03T06:30:38.418Z,97424.91
2022-12-03T06:33:07.477Z,97428.59
2022-12-03T06:35:36.462Z,97424.09
2022-12-03T06:38:05.652Z,97429.28
2022-12-03T06:40:34.554Z,97429.59
2022-12-03T06:43:03.564Z,97429.44
2022-12-03T06:45:32.483Z,97418.78
2022-12-03T06:48:01.550Z,97434.75
2022-12-03T06:50:30.690Z,97444.09
2022-12-03T06:52:59.872Z,97420.22
2022-12-03T06:55:28.992Z,97424.44
2022-12-03T06:57:59.168Z,97425.22
2022-12-03T07:00:29.080Z,97434.25
2022-12-03T07:02:58.765Z,97426.84
2022-12-03T07:05:27.706Z,97444.59
2022-12-03T07:07:56.796Z,97441.34
2022-12-03T07:10:25.898Z,97444.09
2022-12-03T07:12:54.836Z,97439.75
2022-12-03T07:15:23.973Z,97439.25
2022-12-03T07:17:53.107Z,97448.78
2022-12-03T07:20:22.279Z,97442.31
2022-12-03T07:22:51.202Z,97437.63
2022-12-03T07:25:23.405Z,97441.31
2022-12-03T07:27:52.715Z,97446.81
2022-12-03T07:30:22.460Z,97452.16
2022-12-03T07:32:51.470Z,97455.06
2022-12-03T07:35:20.757Z,97454.56
2022-12-03T07:37:49.944Z,97457.47
2022-12-03T07:40:19.088Z,97460.50
2022-12-03T07:42:48.012Z,97453.91
2022-12-03T07:45:17.105Z,97464.69
2022-12-03T07:47:46.083Z,97458.41
2022-12-03T07:50:15.139Z,97452.91
2022-12-03T07:52:44.214Z,97458.91
2022-12-03T07:55:15.651Z,97465.66
2022-12-03T07:57:44.792Z,97461.31
2022-12-03T08:00:15.554Z,97472.09
2022-12-03T08:02:44.847Z,97467.91
2022-12-03T08:05:14.284Z,97460.97
2022-12-03T08:07:43.452Z,97469.06
2022-12-03T08:10:12.555Z,97443.06
2022-12-03T08:12:42.783Z,97465.00
2022-12-03T08:15:20.996Z,97456.78
2022-12-03T08:17:57.291Z,97464.66
2022-12-03T08:20:30.452Z,97472.91
2022-12-03T08:22:59.839Z,97466.75
2022-12-03T08:25:30.982Z,97473.19
2022-12-03T08:28:20.966Z,97476.59
2022-12-03T08:31:29.335Z,97477.38
2022-12-03T08:34:13.750Z,97470.13
2022-12-03T08:36:42.893Z,97478.31
2022-12-03T08:39:52.726Z,97477.72
2022-12-03T08:42:44.024Z,97477.88
2022-12-03T08:45:40.489Z,97482.19
2022-12-03T08:48:37.357Z,97487.03
2022-12-03T08:51:26.479Z,97482.84
2022-12-03T08:54:05.212Z,97481.56
2022-12-03T08:56:36.853Z,97472.31
2022-12-03T08:59:30.264Z,97481.38
2022-12-03T09:02:00.962Z,97486.53
2022-12-03T09:04:40.080Z,97474.91
2022-12-03T09:07:09.318Z,97484.75
2022-12-03T09:09:38.528Z,97481.66
2022-12-03T09:12:07.614Z,97488.75
2022-12-03T09:14:36.571Z,97493.44
2022-12-03T09:17:05.672Z,97503.44
2022-12-03T09:19:34.637Z,97506.16
2022-12-03T09:22:03.706Z,97502.75
2022-12-03T09:24:32.917Z,97502.59
2022-12-03T09:27:03.187Z,97502.44
2022-12-03T09:29:32.134Z,97510.84
2022-12-03T09:32:01.138Z,97501.44
2022-12-03T09:34:30.229Z,97496.28
2022-12-03T09:36:59.112Z,97499.19
2022-12-03T09:39:27.960Z,97503.22
2022-12-03T09:41:57.665Z,97504.53
2022-12-03T09:44:30.007Z,97517.13
2022-12-03T09:47:01.139Z,97512.59
2022-12-03T09:49:32.766Z,97508.53
2022-12-03T09:52:03.795Z,97504.50
2022-12-03T09:54:33.426Z,97504.19
2022-12-03T09:57:04.794Z,97511.59
2022-12-03T09:59:35.760Z,97511.75
2022-12-03T10:02:18.585Z,97521.28
2022-12-03T10:04:49.516Z,97518.72
2022-12-03T10:07:18.678Z,97519.16
2022-12-03T10:09:49.924Z,97503.03
2022-12-03T10:12:25.439Z,97510.00
2022-12-03T10:14:54.762Z,97518.41
2022-12-03T10:17:25.745Z,97516.78
2022-12-03T10:19:54.930Z,97513.22
2022-12-03T10:22:24.968Z,97520.81
2022-12-03T10:25:13.177Z,97512.44
2022-12-03T10:27:42.952Z,97522.94
2022-12-03T10:30:22.999Z,97525.00
2022-12-03T10:32:52.717Z,97530.84
2022-12-03T10:35:24.713Z,97540.19
2022-12-03T10:37:59.912Z,97536.81
2022-12-03T10:40:33.733Z,97533.41
2022-12-03T10:43:21.370Z,97542.50
2022-12-03T10:45:54.935Z,97538.31
2022-12-03T10:48:27.923Z,97539.25
2022-12-03T10:51:07.694Z,97530.53
2022-12-03T10:53:39.774Z,97549.13
2022-12-03T10:56:15.384Z,97544.25
2022-12-03T10:58:45.303Z,97550.44
2022-12-03T11:01:19.760Z,97557.69
2022-12-03T11:03:50.214Z,97563.63
2022-12-03T11:06:23.288Z,97566.06
2022-12-03T11:09:02.539Z,97568.50
2022-12-03T11:11:43.070Z,97549.47
2022-12-03T11:14:18.079Z,97573.03
2022-12-03T11:16:53.397Z,97577.41
2022-12-03T11:19:37.667Z,97577.25
2022-12-03T11:22:07.803Z,97581.63
2022-12-03T11:24:38.976Z,97575.47
2022-12-03T11:27:18.108Z,97570.28
2022-12-03T11:29:51.775Z,97583.03
2022-12-03T11:32:44.803Z,97581.66
2022-12-03T11:35:29.484Z,97580.66
2022-12-03T11:38:39.831Z,97584.06
2022-12-03T11:41:25.355Z,97572.13
2022-12-03T11:43:54.642Z,97585.69
2022-12-03T11:46:36.772Z,97591.03
2022-12-03T11:49:21.129Z,97587.66
2022-12-03T11:51:50.662Z,97586.03
2022-12-03T11:54:23.805Z,97581.97
2022-12-03T11:56:57.796Z,97585.06
2022-12-03T11:59:30.248Z,97583.75
2022-12-03T12:02:02.161Z,97555.28
2022-12-03T12:04:44.070Z,97589.56
2022-12-03T12:07:13.025Z,97571.63
2022-12-03T12:09:58.131Z,97587.47
2022-12-03T12:12:54.423Z,97591.53
2022-12-03T12:15:44.763Z,97594.78
2022-12-03T12:18:41.220Z,97594.13
2022-12-03T12:21:50.833Z,97595.56
2022-12-03T12:24:45.700Z,97593.44
2022-12-03T12:27:23.649Z,97580.03
2022-12-03T12:30:05.136Z,97602.53
2022-12-03T12:32:42.629Z,97611.72
2022-12-03T12:35:23.799Z,97612.69
2022-12-03T12:38:00.211Z,97607.53
2022-12-03T12:40:32.725Z,97613.34
2022-12-03T12:43:16.574Z,97609.78
2022-12-03T12:45:50.208Z,97586.03
2022-12-03T12:48:32.731Z,97600.78
2022-12-03T12:51:20.726Z,97609.19
2022-12-03T12:53:50.588Z,97608.72
2022-12-03T12:56:32.642Z,97616.81
2022-12-03T12:59:16.787Z,97605.16
2022-12-03T13:01:49.714Z,97615.97
2022-12-03T13:04:24.334Z,97618.72
2022-12-03T13:06:54.852Z,97609.34
2022-12-03T13:09:27.820Z,97598.03
2022-12-03T13:12:04.539Z,97624.56
2022-12-03T13:14:38.029Z,97610.19
2022-12-03T13:17:25.125Z,97622.59
2022-12-03T13:20:05.119Z,97607.59
2022-12-03T13:22:35.900Z,97621.16
2022-12-03T13:28:30.504Z,97602.59
2022-12-03T13:31:23.253Z,97625.19
2022-12-03T13:33:53.489Z,97611.13
2022-12-03T13:36:30.402Z,97616.13
2022-12-03T13:38:59.636Z,97619.53
2022-12-03T13:41:47.426Z,97626.16
2022-12-03T13:44:23.148Z,97617.91
2022-12-03T13:46:52.071Z,97623.88
2022-12-03T13:49:24.080Z,97618.69
2022-12-03T13:51:53.096Z,97625.47
2022-12-03T13:54:28.599Z,97633.06
2022-12-03T13:56:57.641Z,97621.06
2022-12-03T13:59:26.595Z,97630.81
2022-12-03T14:01:56.588Z,97634.97
2022-12-03T14:04:25.751Z,97634.69
2022-12-03T14:06:54.564Z,97631.94
2022-12-03T14:09:23.509Z,97632.75
2022-12-03T14:12:10.928Z,97626.63
2022-12-03T14:14:39.918Z,97622.25
2022-12-03T14:17:10.265Z,97638.09
2022-12-03T14:19:39.184Z,97629.56
2022-12-03T14:22:09.976Z,97635.38
2022-12-03T14:24:40.687Z,97637.94
2022-12-03T14:27:09.621Z,97637.59
2022-12-03T14:29:38.530Z,97640.19
2022-12-03T14:32:07.448Z,97637.13
2022-12-03T14:34:36.791Z,97631.44
2022-12-03T14:37:05.707Z,97636.97
2022-12-03T14:39:34.540Z,97641.16
2022-12-03T14:42:15.620Z,97640.34
2022-12-03T14:44:52.170Z,97636.16
2022-12-03T14:47:26.148Z,97648.44
2022-12-03T14:49:55.166Z,97641.50
2022-12-03T14:52:24.182Z,97633.41
2022-12-03T14:54:53.055Z,97642.31
2022-12-03T14:57:22.023Z,97641.19
2022-12-03T14:59:50.866Z,97646.00
2022-12-03T15:02:20.459Z,97648.59
2022-12-03T15:04:49.594Z,97654.56
2022-12-03T15:07:18.759Z,97645.84
2022-12-03T15:09:47.641Z,97629.53
2022-12-03T15:12:16.551Z,97650.22
2022-12-03T15:14:45.946Z,97656.03
2022-12-03T15:17:15.057Z,97654.25
2022-12-03T15:19:43.997Z,97648.44
2022-12-03T15:22:12.931Z,97644.09
2022-12-03T15:24:41.833Z,97650.06
2022-12-03T15:27:10.950Z,97656.69
2022-12-03T15:29:41.735Z,97657.31
2022-12-03T15:32:11.272Z,97653.16
2022-12-03T15:34:40.131Z,97650.84
2022-12-03T15:37:09.761Z,97656.22
2022-12-03T15:39:42.461Z,97652.84
2022-12-03T15:42:15.471Z,97658.16
2022-12-03T15:44:44.259Z,97661.69
2022-12-03T15:47:13.176Z,97658.31
2022-12-03T15:49:42.273Z,97668.66
2022-12-03T15:52:11.110Z,97665.06
2022-12-03T15:54:40.010Z,97669.75
2022-12-03T15:57:08.838Z,97681.56
2022-12-03T15:59:37.728Z,97681.69
2022-12-03T16:02:08.071Z,97671.84
2022-12-03T16:04:37.256Z,97688.47
2022-12-03T16:07:06.333Z,97681.19
2022-12-03T16:09:35.637Z,97689.44
2022-12-03T16:12:04.749Z,97690.75
2022-12-03T16:14:33.824Z,97689.31
2022-12-03T16:17:02.923Z,97691.88
2022-12-03T16:19:31.942Z,97688.63
2022-12-03T16:22:02.961Z,97701.06
2022-12-03T16:24:31.823Z,97694.00
2022-12-03T16:27:00.800Z,97703.53
2022-12-03T16:29:29.749Z,97679.72
2022-12-03T16:31:58.745Z,97705.28
2022-12-03T16:34:27.706Z,97705.13
2022-12-03T16:36:56.652Z,97710.97
2022-12-03T16:39:25.609Z,97708.53
2022-12-03T16:41:54.644Z,97713.19
2022-12-03T16:44:34.066Z,97713.19
2022-12-03T16:47:03.098Z,97708.69
2022-12-03T16:49:32.008Z,97713.84
2022-12-03T16:52:00.885Z,97715.63
2022-12-03T16:54:29.898Z,97708.69
2022-12-03T16:56:58.775Z,97713.84
2022-12-03T16:59:27.659Z,97716.13
2022-12-03T17:01:57.613Z,97721.44
2022-12-03T17:04:26.792Z,97711.91
2022-12-03T17:06:55.664Z,97721.78
2022-12-03T17:09:24.538Z,97715.00
2022-12-03T17:11:53.447Z,97718.06
2022-12-03T17:14:22.774Z,97725.19
2022-12-03T17:16:51.652Z,97722.75
2022-12-03T17:19:20.882Z,97720.47
2022-12-03T17:21:49.766Z,97721.44
2022-12-03T17:24:18.621Z,97727.56
2022-12-03T17:26:47.657Z,97729.00
2022-12-03T17:29:16.576Z,97730.09
2022-12-03T17:31:45.557Z,97732.34
2022-12-03T17:34:14.604Z,97723.59
2022-12-03T17:36:43.565Z,97732.97
2022-12-03T17:39:12.784Z,97731.66
2022-12-03T17:41:41.691Z,97728.53
2022-12-03T17:44:13.921Z,97746.94
2022-12-03T17:46:45.543Z,97745.47
2022-12-03T17:49:14.687Z,97737.88
2022-12-03T17:51:43.580Z,97743.63
2022-12-03T17:54:12.505Z,97740.53
2022-12-03T17:56:44.227Z,97743.63
2022-12-03T17:59:14.141Z,97748.13
2022-12-03T18:01:45.965Z,97742.16
2022-12-03T18:04:15.280Z,97734.34
2022-12-03T18:06:44.292Z,97757.94
2022-12-03T18:09:13.479Z,97749.81
2022-12-03T18:11:42.752Z,97755.00
2022-12-03T18:14:13.229Z,97763.41
2022-12-03T18:16:42.246Z,97755.31
2022-12-03T18:19:11.121Z,97749.63
2022-12-03T18:21:40.044Z,97758.47
2022-12-03T18:24:09.302Z,97756.34
2022-12-03T18:26:38.576Z,97753.25
2022-12-03T18:29:07.461Z,97758.22
2022-12-03T18:31:36.379Z,97757.41
2022-12-03T18:34:05.552Z,97761.41
2022-12-03T18:36:36.994Z,97755.41
2022-12-03T18:39:10.160Z,97759.63
2022-12-03T18:41:39.309Z,97767.50
2022-12-03T18:44:11.710Z,97766.97
2022-12-03T18:46:56.575Z,97762.78
2022-12-03T18:49:25.688Z,97763.91
2022-12-03T18:51:59.504Z,97767.13
2022-12-03T18:54:28.786Z,97776.94
2022-12-03T18:56:57.695Z,97768.03
2022-12-03T18:59:26.575Z,97769.63
2022-12-03T19:01:56.037Z,97761.50
2022-12-03T19:04:26.029Z,97770.72
2022-12-03T19:06:55.099Z,97767.66
2022-12-03T19:09:23.984Z,97770.38
2022-12-03T19:11:52.766Z,97762.91
2022-12-03T19:14:21.643Z,97764.69
2022-12-03T19:16:50.845Z,97770.00
2022-12-03T19:19:19.851Z,97770.31
2022-12-03T19:21:48.972Z,97775.88
2022-12-03T19:24:25.608Z,97788.13
2022-12-03T19:26:56.038Z,97783.59
2022-12-03T19:29:25.338Z,97788.75
2022-12-03T19:31:54.296Z,97788.13
2022-12-03T19:34:23.426Z,97785.81
2022-12-03T19:36:52.334Z,97785.69
2022-12-03T19:39:21.286Z,97796.66
2022-12-03T19:41:50.207Z,97799.66
2022-12-03T19:44:21.070Z,97803.34
2022-12-03T19:46:50.924Z,97804.44
2022-12-03T19:49:21.924Z,97810.25
2022-12-03T19:51:51.255Z,97811.34
2022-12-03T19:54:20.427Z,97817.47
2022-12-03T19:56:49.326Z,97812.59
2022-12-03T19:59:18.250Z,97812.59
2022-12-03T20:01:48.133Z,97799.03
2022-12-03T20:04:17.252Z,97814.16
2022-12-03T20:06:46.328Z,97814.31
2022-12-03T20:09:18.453Z,97809.44
2022-12-03T20:12:07.340Z,97814.91
2022-12-03T20:14:36.123Z,97814.50
2022-12-03T20:17:05.047Z,97820.75
2022-12-03T20:19:33.966Z,97812.88
2022-12-03T20:22:03.188Z,97818.88
2022-12-03T20:24:32.067Z,97822.09
2022-12-03T20:27:00.847Z,97822.25
2022-12-03T20:29:29.824Z,97815.75
2022-12-03T20:32:00.318Z,97824.03
2022-12-03T20:34:29.219Z,97818.97
2022-12-03T20:36:58.097Z,97807.22
2022-12-03T20:39:26.894Z,97808.31
2022-12-03T20:41:56.167Z,97812.50
2022-12-03T20:44:24.967Z,97799.09
2022-12-03T20:46:53.830Z,97808.31
2022-12-03T20:49:22.698Z,97810.34
2022-12-03T20:51:51.443Z,97815.34
2022-12-03T20:54:20.417Z,97808.88
2022-12-03T20:56:49.899Z,97814.81
2022-12-03T20:59:18.859Z,97815.25
2022-12-03T21:01:48.719Z,97820.56
2022-12-03T21:04:18.722Z,97816.66
2022-12-03T21:06:47.630Z,97809.84
2022-12-03T21:09:16.486Z,97813.13
2022-12-03T21:11:45.575Z,97810.81
2022-12-03T21:14:14.563Z,97806.78
2022-12-03T21:17:07.305Z,97815.16
2022-12-03T21:19:35.908Z,97815.31
2022-12-03T21:22:04.984Z,97819.00
2022-12-03T21:24:35.030Z,97822.81
2022-12-03T21:27:04.075Z,97824.44
2022-12-03T21:29:33.029Z,97804.81
2022-12-03T21:32:02.489Z,97826.19
2022-12-03T21:34:36.145Z,97830.16
2022-12-03T21:37:05.466Z,97823.66
2022-12-03T21:39:34.368Z,97837.47
2022-12-03T21:42:18.673Z,97838.00
2022-12-03T21:44:52.137Z,97839.78
2022-12-03T21:47:21.221Z,97840.84
2022-12-03T21:49:50.129Z,97842.47
2022-12-03T21:52:19.163Z,97835.84
2022-12-03T21:54:48.108Z,97856.69
2022-12-03T21:57:16.948Z,97852.16
2022-12-03T21:59:45.869Z,97854.59
2022-12-03T22:02:15.760Z,97848.13
2022-12-03T22:04:45.337Z,97841.88
2022-12-03T22:07:14.198Z,97844.19
2022-12-03T22:09:43.045Z,97843.75
2022-12-03T22:12:11.842Z,97844.13
2022-12-03T22:14:40.770Z,97847.75
2022-12-03T22:17:09.586Z,97842.63
2022-12-03T22:19:40.409Z,97849.09
2022-12-03T22:22:09.648Z,97852.38
2022-12-03T22:24:39.434Z,97858.41
2022-12-03T22:27:08.340Z,97860.56
2022-12-03T22:29:37.292Z,97831.88
2022-12-03T22:32:06.342Z,97856.22
2022-12-03T22:34:35.230Z,97862.56
2022-12-03T22:37:04.466Z,97867.28
2022-12-03T22:39:33.398Z,97867.97
2022-12-03T22:42:02.329Z,97871.19
2022-12-03T22:44:31.467Z,97869.59
2022-12-03T22:47:00.478Z,97871.06
2022-12-03T22:49:29.462Z,97866.72
2022-12-03T22:51:58.372Z,97873.88
2022-12-03T22:54:27.265Z,97867.63
2022-12-03T22:56:56.103Z,97873.47
2022-12-03T22:59:25.265Z,97867.22
2022-12-03T23:01:54.824Z,97868.81
2022-12-03T23:04:24.229Z,97860.66
2022-12-03T23:06:53.106Z,97870.53
2022-12-03T23:09:22.190Z,97868.34
2022-12-03T23:11:51.558Z,97869.28
2022-12-03T23:14:20.445Z,97872.38
2022-12-03T23:16:49.338Z,97872.09
2022-12-03T23:19:20.444Z,97881.97
2022-12-03T23:21:49.536Z,97886.00
2022-12-03T23:24:18.400Z,97881.66
2022-12-03T23:26:47.260Z,97892.38
2022-12-03T23:29:16.136Z,97889.78
2022-12-03T23:31:45.073Z,97893.41
2022-12-03T23:34:14.030Z,97890.81
2022-12-03T23:36:43.088Z,97898.84
2022-12-03T23:39:12.063Z,97907.94
2022-12-03T23:41:40.919Z,97900.59
2022-12-03T23:44:09.749Z,97902.78
2022-12-03T23:46:40.822Z,97904.25
2022-12-03T23:49:09.917Z,97904.25
2022-12-03T23:51:39.491Z,97898.41
2022-12-03T23:54:08.447Z,97888.31
2022-12-03T23:56:37.396Z,97906.94
2022-12-03T23:59:06.276Z,97907.47
